createdAt,value
2023-04-18T00:02:17.516Z,101121.23
2023-04-18T00:04:52.922Z,101118.27
2023-04-18T00:07:21.908Z,101123.11
2023-04-18T00:09:50.439Z,101119.50
2023-04-18T00:12:19.165Z,101116.20
2023-04-18T00:14:50.541Z,101117.30
2023-04-18T00:17:20.647Z,101112.99
2023-04-18T00:19:50.038Z,101112.52
2023-04-18T00:22:22.667Z,101110.23
2023-04-18T00:24:52.043Z,101107.02
2023-04-18T00:27:21.011Z,101112.35
2023-04-18T00:29:49.940Z,101110.08
2023-04-18T00:32:18.639Z,101108.66
2023-04-18T00:34:47.566Z,101101.69
2023-04-18T00:37:16.113Z,101100.19
2023-04-18T00:39:44.551Z,101096.67
2023-04-18T00:42:13.331Z,101098.23
2023-04-18T00:44:41.938Z,101093.37
2023-04-18T00:47:11.624Z,101087.18
2023-04-18T00:49:40.720Z,101085.44
2023-04-18T00:52:09.359Z,101083.01
2023-04-18T00:54:39.701Z,101087.23
2023-04-18T00:57:08.692Z,101078.05
2023-04-18T00:59:37.202Z,101069.83
2023-04-18T01:02:06.036Z,101068.55
2023-04-18T01:04:35.920Z,101069.33
2023-04-18T01:07:04.659Z,101071.74
2023-04-18T01:09:33.177Z,101073.44
2023-04-18T01:12:02.261Z,101072.26
2023-04-18T01:14:31.082Z,101077.11
2023-04-18T01:16:59.808Z,101076.56
2023-04-18T01:19:28.447Z,101080.09
2023-04-18T01:21:57.272Z,101079.23
2023-04-18T01:24:27.040Z,101080.64
2023-04-18T01:26:55.585Z,101081.35
2023-04-18T01:29:24.466Z,101079.73
2023-04-18T01:31:53.185Z,101080.52
2023-04-18T01:34:21.830Z,101081.58
2023-04-18T01:36:50.669Z,101085.42
2023-04-18T01:39:19.570Z,101080.11
2023-04-18T01:41:48.136Z,101077.42
2023-04-18T01:44:18.215Z,101078.02
2023-04-18T01:46:47.791Z,101079.89
2023-04-18T01:49:16.452Z,101077.99
2023-04-18T01:51:44.940Z,101072.11
2023-04-18T01:54:13.671Z,101068.67
2023-04-18T01:56:42.410Z,101064.93
2023-04-18T01:59:11.100Z,101062.63
2023-04-18T02:01:40.704Z,101063.87
2023-04-18T02:04:09.563Z,101058.92
2023-04-18T02:06:38.666Z,101061.52
2023-04-18T02:09:07.207Z,101062.54
2023-04-18T02:11:36.286Z,101058.38
2023-04-18T02:14:05.257Z,101061.73
2023-04-18T02:16:35.570Z,101057.55
2023-04-18T02:19:04.674Z,101056.29
2023-04-18T02:21:33.717Z,101058.56
2023-04-18T02:24:02.247Z,101055.80
2023-04-18T02:26:30.885Z,101057.73
2023-04-18T02:28:59.449Z,101053.17
2023-04-18T02:31:28.034Z,101057.34
2023-04-18T02:33:57.072Z,101054.42
2023-04-18T02:36:27.489Z,101054.17
2023-04-18T02:38:56.254Z,101054.70
2023-04-18T02:41:24.822Z,101052.35
2023-04-18T02:43:55.200Z,101050.34
2023-04-18T02:46:23.638Z,101047.77
2023-04-18T02:48:52.342Z,101047.83
2023-04-18T02:51:26.607Z,101048.45
2023-04-18T02:53:55.935Z,101046.30
2023-04-18T02:56:25.299Z,101051.45
2023-04-18T02:59:12.480Z,101046.75
2023-04-18T03:01:54.761Z,101043.92
2023-04-18T03:04:24.685Z,101052.09
2023-04-18T03:07:02.432Z,101044.10
2023-04-18T03:09:34.655Z,101053.17
2023-04-18T03:12:07.092Z,101056.02
2023-04-18T03:14:38.126Z,101062.92
2023-04-18T03:17:07.374Z,101058.19
2023-04-18T03:19:40.132Z,101058.80
2023-04-18T03:22:11.209Z,101055.30
2023-04-18T03:24:47.388Z,101056.72
2023-04-18T03:27:16.145Z,101047.54
2023-04-18T03:29:45.072Z,101056.05
2023-04-18T03:32:13.662Z,101052.75
2023-04-18T03:34:42.045Z,101056.96
2023-04-18T03:37:10.619Z,101057.84
2023-04-18T03:39:43.705Z,101063.02
2023-04-18T03:42:12.345Z,101070.20
2023-04-18T03:44:41.332Z,101066.00
2023-04-18T03:47:09.894Z,101064.64
2023-04-18T03:49:40.649Z,101061.72
2023-04-18T03:52:09.432Z,101062.46
2023-04-18T03:54:38.028Z,101060.50
2023-04-18T03:57:06.622Z,101065.90
2023-04-18T03:59:36.871Z,101057.73
2023-04-18T04:02:05.646Z,101059.66
2023-04-18T04:04:34.321Z,101069.71
2023-04-18T04:07:02.993Z,101067.46
2023-04-18T04:09:31.770Z,101072.16
2023-04-18T04:12:03.140Z,101063.00
2023-04-18T04:14:32.678Z,101067.12
2023-04-18T04:17:01.287Z,101067.72
2023-04-18T04:19:30.568Z,101065.64
2023-04-18T04:22:13.731Z,101061.73
2023-04-18T04:24:43.054Z,101061.20
2023-04-18T04:27:13.880Z,101059.00
2023-04-18T04:29:44.635Z,101055.02
2023-04-18T04:32:14.508Z,101056.51
2023-04-18T04:34:43.023Z,101060.84
2023-04-18T04:37:18.917Z,101063.20
2023-04-18T04:40:01.728Z,101065.79
2023-04-18T04:42:41.291Z,101063.02
2023-04-18T04:45:15.409Z,101069.55
2023-04-18T04:47:44.143Z,101065.36
2023-04-18T04:50:15.929Z,101064.33
2023-04-18T04:52:44.833Z,101067.84
2023-04-18T04:55:13.709Z,101074.69
2023-04-18T04:57:42.816Z,101079.80
2023-04-18T05:00:38.146Z,101074.73
2023-04-18T05:03:08.636Z,101077.19
2023-04-18T05:05:39.376Z,101086.13
2023-04-18T05:08:07.948Z,101090.38
2023-04-18T05:10:39.378Z,101073.23
2023-04-18T05:13:08.015Z,101080.41
2023-04-18T05:15:36.638Z,101094.13
2023-04-18T05:18:05.383Z,101077.63
2023-04-18T05:20:33.982Z,101080.33
2023-04-18T05:23:02.544Z,101082.10
2023-04-18T05:25:31.948Z,101081.36
2023-04-18T05:28:01.485Z,101089.80
2023-04-18T05:30:30.369Z,101077.36
2023-04-18T05:32:58.918Z,101071.30
2023-04-18T05:35:27.688Z,101064.30
2023-04-18T05:37:56.530Z,101058.85
2023-04-18T05:40:25.575Z,101056.88
2023-04-18T05:42:54.192Z,101059.14
2023-04-18T05:45:22.749Z,101048.04
2023-04-18T05:47:51.545Z,101050.41
2023-04-18T05:50:21.242Z,101036.98
2023-04-18T05:52:49.853Z,101036.48
2023-04-18T05:55:18.489Z,101039.23
2023-04-18T05:57:47.109Z,101037.85
2023-04-18T06:00:17.456Z,101039.84
2023-04-18T06:02:46.221Z,101030.09
2023-04-18T06:05:15.505Z,101026.70
2023-04-18T06:07:44.181Z,101029.04
2023-04-18T06:10:13.785Z,101041.25
2023-04-18T06:12:42.587Z,101024.31
2023-04-18T06:15:11.889Z,101027.51
2023-04-18T06:17:41.572Z,101031.09
2023-04-18T06:20:10.974Z,101029.55
2023-04-18T06:22:40.446Z,101019.98
2023-04-18T06:25:10.282Z,101018.63
2023-04-18T06:27:39.142Z,101017.89
2023-04-18T06:30:09.067Z,101013.40
2023-04-18T06:32:37.812Z,101011.55
2023-04-18T06:35:07.002Z,101007.06
2023-04-18T06:37:35.825Z,101010.56
2023-04-18T06:40:04.954Z,101005.23
2023-04-18T06:42:33.709Z,101007.96
2023-04-18T06:45:03.882Z,101014.53
2023-04-18T06:47:33.074Z,101004.75
2023-04-18T06:50:28.534Z,101008.46
2023-04-18T06:53:05.948Z,101009.16
2023-04-18T07:03:43.647Z,101006.30
2023-04-18T07:06:30.759Z,100993.79
2023-04-18T07:13:17.646Z,100985.16
2023-04-18T07:16:12.722Z,100995.00
2023-04-18T07:18:45.394Z,100992.80
2023-04-18T07:21:15.029Z,100991.27
2023-04-18T07:23:45.593Z,100993.52
2023-04-18T07:26:14.769Z,100991.69
2023-04-18T07:28:43.550Z,100994.11
2023-04-18T07:31:14.781Z,100990.01
2023-04-18T07:33:45.869Z,100978.31
2023-04-18T07:36:14.956Z,100964.11
2023-04-18T07:38:44.690Z,100982.66
2023-04-18T07:41:13.397Z,100977.40
2023-04-18T07:43:42.450Z,100975.05
2023-04-18T07:46:11.300Z,100974.02
2023-04-18T07:48:40.953Z,100973.20
2023-04-18T07:51:10.008Z,100979.04
2023-04-18T07:53:41.265Z,100965.28
2023-04-18T07:56:14.682Z,100968.15
2023-04-18T07:58:43.393Z,100970.23
2023-04-18T08:01:15.410Z,100964.98
2023-04-18T08:10:52.832Z,100974.36
2023-04-18T08:14:05.711Z,100979.42
2023-04-18T08:17:20.484Z,100973.58
2023-04-18T08:20:07.662Z,100955.67
2023-04-18T08:22:44.191Z,100951.02
2023-04-18T08:25:31.980Z,100959.52
2023-04-18T08:28:44.805Z,100962.23
2023-04-18T08:31:43.285Z,100956.88
2023-04-18T08:38:13.269Z,100948.81
2023-04-18T08:44:41.240Z,100956.27
2023-04-18T08:47:47.063Z,100955.96
2023-04-18T08:51:30.627Z,100956.54
2023-04-18T09:01:02.706Z,100960.91
2023-04-18T09:04:18.830Z,100944.69
2023-04-18T09:08:16.777Z,100957.27
2023-04-18T09:15:34.066Z,100952.39
2023-04-18T09:18:56.927Z,100952.97
2023-04-18T09:29:23.984Z,100943.20
2023-04-18T09:36:36.979Z,100948.05
2023-04-18T09:40:01.007Z,100939.83
2023-04-18T09:50:06.718Z,100933.66
2023-04-18T09:53:24.290Z,100934.02
2023-04-18T09:57:15.557Z,100935.70
2023-04-18T10:00:45.622Z,100937.04
2023-04-18T10:04:16.968Z,100928.87
2023-04-18T10:07:06.660Z,100939.77
2023-04-18T10:09:37.032Z,100941.09
2023-04-18T10:12:14.051Z,100939.90
2023-04-18T10:14:47.285Z,100944.00
2023-04-18T10:17:29.646Z,100946.11
2023-04-18T10:21:31.131Z,100948.13
2023-04-18T10:24:00.964Z,100944.11
2023-04-18T10:26:47.114Z,100948.32
2023-04-18T10:29:15.973Z,100959.27
2023-04-18T10:31:48.035Z,100957.45
2023-04-18T10:34:19.891Z,100958.38
2023-04-18T10:37:04.725Z,100958.42
2023-04-18T10:39:51.304Z,100954.14
2023-04-18T10:42:20.228Z,100938.96
2023-04-18T10:45:27.185Z,100938.11
2023-04-18T10:48:30.490Z,100941.39
2023-04-18T10:52:00.644Z,100923.95
2023-04-18T10:54:32.563Z,100920.71
2023-04-18T10:57:03.179Z,100910.52
2023-04-18T10:59:33.653Z,100909.45
2023-04-18T11:02:12.774Z,100914.54
2023-04-18T11:04:41.478Z,100910.45
2023-04-18T11:07:09.966Z,100922.16
2023-04-18T11:09:39.159Z,100923.45
2023-04-18T11:12:10.813Z,100919.58
2023-04-18T11:14:49.665Z,100922.80
2023-04-18T11:17:26.942Z,100926.58
2023-04-18T11:20:02.615Z,100929.20
2023-04-18T11:22:31.725Z,100920.23
2023-04-18T11:25:10.050Z,100922.61
2023-04-18T11:27:41.148Z,100927.04
2023-04-18T11:30:10.295Z,100919.59
2023-04-18T11:32:39.967Z,100921.72
2023-04-18T11:35:09.693Z,100913.71
2023-04-18T11:37:38.868Z,100926.95
2023-04-18T11:40:13.552Z,100918.20
2023-04-18T11:42:42.801Z,100920.75
2023-04-18T11:45:14.841Z,100919.99
2023-04-18T11:47:45.144Z,100922.09
2023-04-18T11:50:13.959Z,100917.77
2023-04-18T11:52:42.779Z,100914.24
2023-04-18T11:55:17.954Z,100902.97
2023-04-18T12:01:53.177Z,100899.59
2023-04-18T12:08:06.999Z,100893.27
2023-04-18T12:10:37.101Z,100899.62
2023-04-18T12:13:08.977Z,100897.73
2023-04-18T12:15:40.376Z,100898.37
2023-04-18T12:18:11.164Z,100894.84
2023-04-18T12:20:54.639Z,100878.66
2023-04-18T12:23:36.459Z,100870.73
2023-04-18T12:26:15.419Z,100875.61
2023-04-18T12:28:46.308Z,100867.12
2023-04-18T12:31:17.041Z,100870.55
2023-04-18T12:33:48.107Z,100864.95
2023-04-18T12:36:26.653Z,100871.09
2023-04-18T12:38:58.833Z,100861.46
2023-04-18T12:41:27.854Z,100855.95
2023-04-18T12:43:59.282Z,100861.14
2023-04-18T12:46:29.570Z,100862.20
2023-04-18T12:49:00.950Z,100854.58
2023-04-18T12:51:31.704Z,100866.33
2023-04-18T12:54:01.556Z,100862.79
2023-04-18T12:56:51.065Z,100862.13
2023-04-18T13:00:04.869Z,100854.95
2023-04-18T13:02:37.808Z,100859.41
2023-04-18T13:05:08.719Z,100864.45
2023-04-18T13:07:41.160Z,100855.36
2023-04-18T13:10:11.860Z,100864.61
2023-04-18T13:12:41.716Z,100859.86
2023-04-18T13:15:12.144Z,100868.27
2023-04-18T13:17:41.067Z,100859.88
2023-04-18T13:20:10.874Z,100865.42
2023-04-18T13:22:41.150Z,100865.78
2023-04-18T13:25:13.195Z,100853.08
2023-04-18T13:27:42.258Z,100848.59
2023-04-18T13:30:11.374Z,100851.68
2023-04-18T13:32:41.863Z,100848.88
2023-04-18T13:35:11.765Z,100854.57
2023-04-18T13:37:41.032Z,100857.63
2023-04-18T13:40:09.942Z,100857.46
2023-04-18T13:42:40.175Z,100859.69
2023-04-18T13:45:09.252Z,100864.66
2023-04-18T13:47:38.066Z,100861.52
2023-04-18T13:50:08.349Z,100856.18
2023-04-18T13:52:37.983Z,100855.86
2023-04-18T13:55:10.753Z,100857.71
2023-04-18T13:57:39.655Z,100852.41
2023-04-18T14:00:09.596Z,100856.55
2023-04-18T14:02:41.750Z,100859.64
2023-04-18T14:05:10.895Z,100857.91
2023-04-18T14:07:39.663Z,100856.71
2023-04-18T14:10:08.665Z,100857.80
2023-04-18T14:12:37.835Z,100864.84
2023-04-18T14:15:07.487Z,100869.62
2023-04-18T14:17:37.261Z,100865.49
2023-04-18T14:20:06.706Z,100860.55
2023-04-18T14:22:35.336Z,100863.38
2023-04-18T14:25:04.170Z,100856.90
2023-04-18T14:27:33.150Z,100857.61
2023-04-18T14:30:01.618Z,100846.89
2023-04-18T14:32:30.927Z,100843.77
2023-04-18T14:34:59.475Z,100841.06
2023-04-18T14:37:28.494Z,100838.73
2023-04-18T14:39:57.531Z,100835.13
2023-04-18T14:42:26.013Z,100831.05
2023-04-18T14:44:54.679Z,100831.90
2023-04-18T14:47:24.371Z,100827.86
2023-04-18T14:49:53.263Z,100829.09
2023-04-18T14:52:21.852Z,100826.50
2023-04-18T14:54:50.351Z,100825.20
2023-04-18T14:57:18.808Z,100825.52
2023-04-18T14:59:47.405Z,100831.39
2023-04-18T15:02:16.068Z,100829.80
2023-04-18T15:04:44.877Z,100819.09
2023-04-18T15:07:13.842Z,100811.58
2023-04-18T15:09:42.486Z,100808.55
2023-04-18T15:12:11.000Z,100816.00
2023-04-18T15:14:39.922Z,100811.15
2023-04-18T15:17:08.428Z,100814.02
2023-04-18T15:19:37.007Z,100812.50
2023-04-18T15:22:05.441Z,100816.71
2023-04-18T15:24:33.959Z,100817.07
2023-04-18T15:27:02.599Z,100827.33
2023-04-18T15:29:31.258Z,100822.55
2023-04-18T15:32:00.098Z,100824.52
2023-04-18T15:34:28.654Z,100827.23
2023-04-18T15:36:57.128Z,100824.46
2023-04-18T15:39:25.866Z,100831.11
2023-04-18T15:41:54.893Z,100828.77
2023-04-18T15:44:23.503Z,100826.70
2023-04-18T15:46:51.953Z,100827.75
2023-04-18T15:49:20.514Z,100825.33
2023-04-18T15:51:49.287Z,100823.64
2023-04-18T15:54:17.648Z,100822.44
2023-04-18T15:56:46.261Z,100822.93
2023-04-18T15:59:14.938Z,100816.89
2023-04-18T16:01:45.652Z,100818.88
2023-04-18T16:04:14.883Z,100816.89
2023-04-18T16:06:43.911Z,100815.83
2023-04-18T16:09:12.459Z,100817.42
2023-04-18T16:11:41.213Z,100817.44
2023-04-18T16:14:09.742Z,100818.58
2023-04-18T16:16:38.211Z,100821.16
2023-04-18T16:19:06.695Z,100815.74
2023-04-18T16:21:35.209Z,100821.19
2023-04-18T16:24:03.896Z,100818.23
2023-04-18T16:26:32.732Z,100819.83
2023-04-18T16:29:01.369Z,100821.38
2023-04-18T16:31:30.117Z,100823.82
2023-04-18T16:33:58.472Z,100824.11
2023-04-18T16:36:26.883Z,100819.09
2023-04-18T16:38:55.185Z,100820.89
2023-04-18T16:41:23.829Z,100818.54
2023-04-18T16:43:52.463Z,100818.34
2023-04-18T16:46:21.217Z,100822.73
2023-04-18T16:48:52.322Z,100827.77
2023-04-18T16:51:21.292Z,100831.39
2023-04-18T16:53:49.805Z,100832.84
2023-04-18T16:56:18.093Z,100832.31
2023-04-18T16:58:46.745Z,100831.73
2023-04-18T17:01:15.127Z,100834.56
2023-04-18T17:03:43.911Z,100837.85
2023-04-18T17:06:12.426Z,100839.63
2023-04-18T17:08:41.141Z,100847.23
2023-04-18T17:11:09.675Z,100843.61
2023-04-18T17:13:39.731Z,100840.98
2023-04-18T17:16:08.456Z,100842.02
2023-04-18T17:18:37.174Z,100840.35
2023-04-18T17:21:05.943Z,100841.94
2023-04-18T17:23:34.530Z,100842.41
2023-04-18T17:26:03.126Z,100846.08
2023-04-18T17:28:32.227Z,100849.15
2023-04-18T17:31:02.086Z,100848.11
2023-04-18T17:33:31.379Z,100843.56
2023-04-18T17:36:00.217Z,100844.18
2023-04-18T17:38:28.891Z,100838.47
2023-04-18T17:41:01.252Z,100842.70
2023-04-18T17:43:30.064Z,100836.38
2023-04-18T17:45:59.690Z,100835.79
2023-04-18T17:48:28.543Z,100834.02
2023-04-18T17:50:57.294Z,100831.26
2023-04-18T18:03:18.044Z,100825.98
2023-04-18T18:05:47.944Z,100821.45
2023-04-18T18:08:17.950Z,100822.48
2023-04-18T18:10:47.768Z,100814.20
2023-04-18T18:13:17.837Z,100814.21
2023-04-18T18:15:46.734Z,100816.30
2023-04-18T18:18:30.045Z,100809.96
2023-04-18T18:20:59.896Z,100806.02
2023-04-18T18:23:29.286Z,100800.70
2023-04-18T18:25:58.015Z,100802.59
2023-04-18T18:28:26.856Z,100796.92
2023-04-18T18:30:55.609Z,100792.45
2023-04-18T18:33:24.372Z,100789.95
2023-04-18T18:35:53.839Z,100788.46
2023-04-18T18:38:22.624Z,100787.94
2023-04-18T18:40:51.974Z,100783.59
2023-04-18T18:43:20.864Z,100778.92
2023-04-18T18:45:49.553Z,100776.82
2023-04-18T18:48:18.315Z,100775.05
2023-04-18T18:50:47.104Z,100773.41
2023-04-18T18:53:18.137Z,100773.99
2023-04-18T18:55:46.888Z,100768.52
2023-04-18T18:58:16.051Z,100766.88
2023-04-18T19:00:45.467Z,100760.69
2023-04-18T19:03:14.593Z,100759.17
2023-04-18T19:05:43.525Z,100758.21
2023-04-18T19:08:12.455Z,100753.95
2023-04-18T19:10:41.709Z,100753.91
2023-04-18T19:13:10.437Z,100756.68
2023-04-18T19:15:39.380Z,100753.55
2023-04-18T19:18:08.142Z,100754.59
2023-04-18T19:20:41.889Z,100755.91
2023-04-18T19:23:11.762Z,100756.13
2023-04-18T19:25:40.427Z,100756.58
2023-04-18T19:28:09.521Z,100757.95
2023-04-18T19:30:38.064Z,100758.52
2023-04-18T19:33:06.607Z,100757.63
2023-04-18T19:35:37.778Z,100757.44
2023-04-18T19:38:07.018Z,100754.61
2023-04-18T19:40:42.497Z,100755.17
2023-04-18T19:43:11.832Z,100755.09
2023-04-18T19:45:41.495Z,100750.91
2023-04-18T19:48:13.087Z,100748.20
2023-04-18T19:50:46.154Z,100741.96
2023-04-18T19:53:16.563Z,100744.60
2023-04-18T19:55:48.877Z,100742.83
2023-04-18T19:58:43.020Z,100747.38
2023-04-18T20:01:15.662Z,100744.20
2023-04-18T20:03:47.267Z,100741.25
2023-04-18T20:06:17.756Z,100738.60
2023-04-18T20:08:47.556Z,100740.30
2023-04-18T20:11:16.749Z,100734.98
2023-04-18T20:13:45.819Z,100733.96
2023-04-18T20:16:17.975Z,100733.42
2023-04-18T20:18:47.671Z,100727.66
2023-04-18T20:21:16.955Z,100723.77
2023-04-18T20:23:46.777Z,100716.95
2023-04-18T20:26:35.848Z,100717.04
2023-04-18T20:29:05.255Z,100715.79
2023-04-18T20:31:36.227Z,100714.62
2023-04-18T20:34:06.697Z,100718.34
2023-04-18T20:36:35.646Z,100712.05
2023-04-18T20:39:06.427Z,100713.48
2023-04-18T20:41:37.184Z,100711.95
2023-04-18T20:44:07.176Z,100714.48
2023-04-18T20:46:37.719Z,100710.17
2023-04-18T20:49:07.639Z,100711.06
2023-04-18T20:51:39.425Z,100708.90
2023-04-18T20:54:09.987Z,100707.41
2023-04-18T20:56:38.573Z,100712.80
2023-04-18T20:59:07.313Z,100713.46
2023-04-18T21:01:37.331Z,100707.70
2023-04-18T21:04:06.127Z,100707.56
2023-04-18T21:06:35.187Z,100709.80
2023-04-18T21:09:04.163Z,100708.69
2023-04-18T21:11:33.687Z,100705.89
2023-04-18T21:14:06.273Z,100701.77
2023-04-18T21:16:35.642Z,100695.27
2023-04-18T21:19:04.144Z,100691.96
2023-04-18T21:21:34.525Z,100688.20
2023-04-18T21:24:03.768Z,100682.07
2023-04-18T21:26:32.694Z,100681.70
2023-04-18T21:29:02.746Z,100677.58
2023-04-18T21:31:32.166Z,100673.44
2023-04-18T21:34:02.155Z,100675.58
2023-04-18T21:36:31.466Z,100670.19
2023-04-18T21:39:01.102Z,100670.34
2023-04-18T21:41:30.280Z,100668.86
2023-04-18T21:43:58.737Z,100662.92
2023-04-18T21:46:27.302Z,100661.75
2023-04-18T21:48:55.843Z,100662.23
2023-04-18T21:51:24.511Z,100656.67
2023-04-18T21:53:54.015Z,100659.05
2023-04-18T21:56:22.519Z,100660.95
2023-04-18T21:58:51.262Z,100653.79
2023-04-18T22:01:19.738Z,100655.61
2023-04-18T22:03:48.568Z,100648.70
2023-04-18T22:06:17.153Z,100645.05
2023-04-18T22:08:45.625Z,100643.53
2023-04-18T22:11:14.087Z,100640.31
2023-04-18T22:13:45.053Z,100639.85
2023-04-18T22:16:13.749Z,100638.16
2023-04-18T22:18:42.344Z,100632.81
2023-04-18T22:21:10.788Z,100633.63
2023-04-18T22:23:39.343Z,100628.27
2023-04-18T22:26:07.813Z,100629.34
2023-04-18T22:28:36.421Z,100632.96
2023-04-18T22:31:05.176Z,100636.05
2023-04-18T22:33:33.869Z,100628.45
2023-04-18T22:36:02.412Z,100634.58
2023-04-18T22:38:30.976Z,100631.95
2023-04-18T22:41:00.899Z,100629.45
2023-04-18T22:43:29.675Z,100625.52
2023-04-18T22:45:58.290Z,100621.00
2023-04-18T22:48:26.604Z,100615.92
2023-04-18T22:50:55.467Z,100613.23
2023-04-18T22:53:24.939Z,100607.80
2023-04-18T22:55:53.332Z,100604.55
2023-04-18T22:58:21.765Z,100596.16
2023-04-18T23:00:50.448Z,100592.98
2023-04-18T23:03:20.184Z,100585.10
2023-04-18T23:05:48.679Z,100583.13
2023-04-18T23:08:18.974Z,100580.08
2023-04-18T23:10:47.351Z,100579.59
2023-04-18T23:13:15.740Z,100581.15
2023-04-18T23:15:44.282Z,100573.16
2023-04-18T23:18:12.855Z,100576.06
2023-04-18T23:20:41.334Z,100576.63
2023-04-18T23:23:09.969Z,100568.48
2023-04-18T23:25:38.584Z,100567.09
2023-04-18T23:28:07.516Z,100568.58
2023-04-18T23:30:37.330Z,100566.69
2023-04-18T23:33:06.114Z,100554.71
2023-04-18T23:35:34.890Z,100560.90
2023-04-18T23:38:03.680Z,100565.80
2023-04-18T23:40:32.369Z,100561.10
2023-04-18T23:43:01.662Z,100560.57
2023-04-18T23:45:30.193Z,100560.67
2023-04-18T23:47:58.710Z,100562.58
2023-04-18T23:50:27.330Z,100560.91
2023-04-18T23:52:56.035Z,100568.39
2023-04-18T23:55:24.542Z,100566.39
2023-04-18T23:57:53.017Z,100565.15
